Time;durP1;ratioP1;P1;durP2;ratioP2;P2;SDS_P1;SDS_P2;PMS_P1;PMS_P2;Temp;Humidity;BMP_temperature;BMP_pressure;BME280_temperature;BME280_humidity;BME280_pressure;Samples;Min_cycle;Max_cycle;Signal;HPM_P1;HPM_P2
2021/04/01 00:00:50;;;;;;;10.70;9.67;;;15.70;69.20;;;;;;5072304;28;20183;-70
2021/04/01 00:03:16;;;;;;;10.60;9.80;;;15.70;68.70;;;;;;5073402;28;20419;-71
2021/04/01 00:05:43;;;;;;;10.87;9.77;;;15.60;68.60;;;;;;5073756;28;20414;-70
2021/04/01 00:08:10;;;;;;;9.93;8.90;;;15.60;69.00;;;;;;5073875;28;20413;-70
2021/04/01 00:10:42;;;;;;;9.77;8.83;;;15.50;69.30;;;;;;5073175;28;20425;-70
2021/04/01 00:13:09;;;;;;;10.97;9.97;;;15.50;69.50;;;;;;5073988;28;20440;-71
2021/04/01 00:15:38;;;;;;;10.63;9.40;;;15.40;68.70;;;;;;5072829;28;20406;-72
2021/04/01 00:18:08;;;;;;;11.47;10.30;;;15.40;69.70;;;;;;5073277;28;20438;-72
2021/04/01 00:20:34;;;;;;;11.40;10.33;;;15.40;70.30;;;;;;5071321;28;20424;-73
2021/04/01 00:23:00;;;;;;;11.37;10.30;;;15.40;70.40;;;;;;5072841;28;20417;-72
2021/04/01 00:25:25;;;;;;;10.30;9.33;;;15.30;70.20;;;;;;5072625;28;20200;-73
2021/04/01 00:27:51;;;;;;;11.10;10.00;;;15.30;69.70;;;;;;5073737;28;20166;-73
2021/04/01 00:30:17;;;;;;;10.43;9.50;;;15.30;71.90;;;;;;5073349;28;20582;-73
2021/04/01 00:32:46;;;;;;;10.40;9.40;;;15.30;71.40;;;;;;5072683;28;20237;-73
2021/04/01 00:35:12;;;;;;;14.37;10.60;;;15.30;71.60;;;;;;5073524;28;20416;-70
2021/04/01 00:37:37;;;;;;;11.47;10.50;;;15.30;71.50;;;;;;5072441;28;20419;-70
2021/04/01 00:40:04;;;;;;;11.13;9.97;;;15.20;71.10;;;;;;5072997;28;20429;-70
2021/04/01 00:42:30;;;;;;;10.33;9.37;;;15.20;70.90;;;;;;5072040;28;20262;-70
2021/04/01 00:45:05;;;;;;;12.83;10.40;;;15.20;70.40;;;;;;5072162;28;20494;-70
2021/04/01 00:47:36;;;;;;;12.13;10.03;;;15.20;70.30;;;;;;5072394;28;20184;-70
2021/04/01 00:50:06;;;;;;;10.57;9.57;;;15.20;73.50;;;;;;5073231;28;20896;-70
2021/04/01 00:52:32;;;;;;;11.53;10.50;;;15.20;72.10;;;;;;5072248;28;20480;-70
2021/04/01 00:54:58;;;;;;;11.03;9.90;;;15.10;71.60;;;;;;5072860;28;20435;-70
2021/04/01 00:57:24;;;;;;;12.00;9.67;;;15.10;71.70;;;;;;5072243;28;20185;-70
2021/04/01 00:59:50;;;;;;;11.70;10.60;;;15.10;72.40;;;;;;5064451;28;20425;-70
2021/04/01 01:02:16;;;;;;;10.60;9.57;;;15.10;71.80;;;;;;5061379;28;20455;-70
2021/04/01 01:04:43;;;;;;;10.80;9.83;;;15.10;71.50;;;;;;5052127;28;20397;-70
2021/04/01 01:07:09;;;;;;;10.80;9.90;;;15.10;72.40;;;;;;5053076;28;20212;-70
2021/04/01 01:09:34;;;;;;;10.20;9.23;;;15.10;72.40;;;;;;5051687;28;20447;-70
2021/04/01 01:12:00;;;;;;;11.13;9.90;;;15.10;72.70;;;;;;5072197;28;20181;-70
2021/04/01 01:14:26;;;;;;;10.90;9.77;;;15.00;72.00;;;;;;5071941;28;20181;-71
2021/04/01 01:16:52;;;;;;;11.17;9.53;;;15.00;72.30;;;;;;5072718;28;20442;-70
2021/04/01 01:19:18;;;;;;;11.07;10.00;;;15.00;72.50;;;;;;5072639;28;20246;-70
2021/04/01 01:21:45;;;;;;;9.83;8.93;;;14.90;72.80;;;;;;5071752;28;20181;-70
2021/04/01 01:24:13;;;;;;;12.63;10.83;;;14.90;73.00;;;;;;5071317;28;20188;-70
2021/04/01 01:26:40;;;;;;;11.70;10.50;;;14.90;72.60;;;;;;5071435;28;20417;-69
2021/04/01 01:29:09;;;;;;;10.50;9.50;;;14.90;72.90;;;;;;5072573;28;20420;-70
2021/04/01 01:31:41;;;;;;;11.37;10.47;;;14.80;73.70;;;;;;5070526;28;20412;-70
2021/04/01 01:34:07;;;;;;;10.77;9.80;;;14.80;73.30;;;;;;5072391;28;20481;-70
2021/04/01 01:36:33;;;;;;;11.53;10.53;;;14.70;73.30;;;;;;5071444;28;20416;-70
2021/04/01 01:38:58;;;;;;;10.77;9.77;;;14.70;74.60;;;;;;5072406;28;20221;-70
2021/04/01 01:41:24;;;;;;;16.23;10.50;;;14.70;74.60;;;;;;5071363;28;20536;-71
2021/04/01 01:43:51;;;;;;;12.20;10.63;;;14.70;74.30;;;;;;5072370;28;20189;-70
2021/04/01 01:46:16;;;;;;;10.43;9.53;;;14.70;74.60;;;;;;5072408;28;20532;-69
2021/04/01 01:48:42;;;;;;;11.17;9.90;;;14.70;75.30;;;;;;5071468;28;20405;-70
2021/04/01 01:51:08;;;;;;;10.70;9.70;;;14.60;75.40;;;;;;5072221;28;20189;-70
2021/04/01 01:53:35;;;;;;;12.37;9.83;;;14.60;74.90;;;;;;5070461;28;20211;-70
2021/04/01 01:56:01;;;;;;;10.90;9.90;;;14.60;75.20;;;;;;5072106;28;20185;-70
2021/04/01 01:58:27;;;;;;;11.53;10.43;;;14.50;74.90;;;;;;5071283;28;20414;-70
2021/04/01 02:00:55;;;;;;;13.83;10.03;;;14.50;75.20;;;;;;5072060;28;20440;-70
2021/04/01 02:03:23;;;;;;;12.20;11.10;;;14.50;75.70;;;;;;5072141;28;20187;-71
2021/04/01 02:05:49;;;;;;;11.67;10.47;;;14.50;75.80;;;;;;5071773;28;20473;-71
2021/04/01 02:08:16;;;;;;;11.47;10.27;;;14.50;76.60;;;;;;5072086;28;20394;-71
2021/04/01 02:10:47;;;;;;;12.07;10.83;;;14.50;76.50;;;;;;5070978;28;20936;-71
2021/04/01 02:13:14;;;;;;;11.90;10.67;;;14.40;76.90;;;;;;5072079;28;20437;-71
2021/04/01 02:15:43;;;;;;;12.57;11.30;;;14.40;76.70;;;;;;5071039;28;20475;-71
2021/04/01 02:18:24;;;;;;;12.77;11.50;;;14.40;77.80;;;;;;5070837;28;20475;-71
2021/04/01 02:20:52;;;;;;;12.00;10.80;;;14.40;77.50;;;;;;5070351;28;20391;-71
2021/04/01 02:23:23;;;;;;;10.60;9.70;;;14.40;77.30;;;;;;5071350;28;20821;-71
2021/04/01 02:25:50;;;;;;;11.93;10.73;;;14.40;78.00;;;;;;5071263;28;20547;-71
2021/04/01 02:28:18;;;;;;;12.13;10.73;;;14.30;76.90;;;;;;5071552;28;20422;-71
2021/04/01 02:30:47;;;;;;;11.13;10.13;;;14.30;77.10;;;;;;5071117;28;20569;-71
2021/04/01 02:33:15;;;;;;;11.97;10.70;;;14.30;78.40;;;;;;5071427;28;20465;-71
2021/04/01 02:35:41;;;;;;;12.10;10.90;;;14.30;78.40;;;;;;5071045;28;20499;-71
2021/04/01 02:38:07;;;;;;;13.00;10.93;;;14.30;78.70;;;;;;5071551;28;20500;-71
2021/04/01 02:40:33;;;;;;;10.93;9.93;;;14.30;78.30;;;;;;5070011;28;20666;-71
2021/04/01 02:42:59;;;;;;;11.13;10.03;;;14.30;78.20;;;;;;5071663;28;20486;-71
2021/04/01 02:45:25;;;;;;;12.53;10.90;;;14.30;78.00;;;;;;5071534;28;20521;-72
2021/04/01 02:47:51;;;;;;;11.50;10.40;;;14.30;77.70;;;;;;5071319;28;20632;-71
2021/04/01 02:50:18;;;;;;;13.87;11.80;;;14.30;77.40;;;;;;5070649;28;20432;-71
2021/04/01 02:52:44;;;;;;;12.73;10.83;;;14.40;77.00;;;;;;5070873;28;20555;-73
2021/04/01 02:55:13;;;;;;;12.77;11.40;;;14.40;76.30;;;;;;5071231;28;20428;-72
2021/04/01 02:57:39;;;;;;;13.27;11.97;;;14.40;75.50;;;;;;5070885;28;20171;-72
2021/04/01 03:00:10;;;;;;;12.20;10.63;;;14.30;76.50;;;;;;5071615;28;20412;-72
2021/04/01 03:02:37;;;;;;;12.50;10.67;;;14.30;77.20;;;;;;5070793;28;20898;-73
2021/04/01 03:05:06;;;;;;;11.60;10.47;;;14.30;77.40;;;;;;5073208;28;20764;-73
2021/04/01 03:07:36;;;;;;;11.80;10.60;;;14.30;77.50;;;;;;5074402;28;20432;-73
2021/04/01 03:10:04;;;;;;;13.23;11.73;;;14.30;77.70;;;;;;5074871;28;20426;-73
2021/04/01 03:12:30;;;;;;;12.90;11.57;;;14.30;77.40;;;;;;5074193;28;20461;-74
2021/04/01 03:14:55;;;;;;;12.00;10.83;;;14.30;76.50;;;;;;5073886;28;20501;-73
2021/04/01 03:17:21;;;;;;;14.00;11.13;;;14.30;77.30;;;;;;5073398;28;20183;-71
2021/04/01 03:19:47;;;;;;;15.17;12.00;;;14.30;77.70;;;;;;5072685;28;20172;-71
2021/04/01 03:22:13;;;;;;;13.10;11.77;;;14.30;77.80;;;;;;5073652;28;20185;-71
2021/04/01 03:24:38;;;;;;;12.90;11.60;;;14.30;78.00;;;;;;5073745;28;20178;-71
2021/04/01 03:27:04;;;;;;;11.90;10.70;;;14.30;79.00;;;;;;5074598;28;20192;-71
2021/04/01 03:29:30;;;;;;;14.20;12.10;;;14.30;78.90;;;;;;5074017;28;20274;-72
2021/04/01 03:31:56;;;;;;;12.53;11.27;;;14.20;79.00;;;;;;5074738;28;20488;-71
2021/04/01 03:34:22;;;;;;;12.83;11.63;;;14.20;79.40;;;;;;5074840;28;20224;-71
2021/04/01 03:36:49;;;;;;;13.90;12.37;;;14.20;79.20;;;;;;5073571;28;20186;-71
2021/04/01 03:39:15;;;;;;;13.60;12.00;;;14.20;80.20;;;;;;5074316;28;20258;-71
2021/04/01 03:41:41;;;;;;;12.27;10.97;;;14.10;78.70;;;;;;5073804;28;20459;-71
2021/04/01 03:44:07;;;;;;;14.43;11.80;;;14.10;79.10;;;;;;5074402;28;20421;-71
2021/04/01 03:46:34;;;;;;;12.97;11.67;;;14.10;80.00;;;;;;5072373;28;20416;-72
2021/04/01 03:49:00;;;;;;;14.17;12.73;;;14.10;80.00;;;;;;5074486;28;20413;-71
2021/04/01 03:51:25;;;;;;;13.23;11.90;;;14.10;82.00;;;;;;5074382;28;20779;-71
2021/04/01 03:53:51;;;;;;;14.00;12.50;;;14.10;80.80;;;;;;5073496;28;20230;-71
2021/04/01 03:56:17;;;;;;;13.93;12.03;;;14.10;81.10;;;;;;5073051;28;20179;-71
2021/04/01 04:07:07;;;;;;;15.17;13.87;;;14.10;82.10;;;;;;5074131;28;20397;-71
2021/04/01 04:12:25;;;;;;;15.90;14.40;;;14.10;82.50;;;;;;5073358;28;20405;-72
2021/04/01 04:14:46;;;;;;;15.00;13.57;;;14.00;82.60;;;;;;5072456;28;20524;-71
2021/04/01 04:17:12;;;;;;;14.80;12.87;;;14.00;82.30;;;;;;5072275;28;20432;-71
2021/04/01 04:19:38;;;;;;;14.40;13.03;;;14.00;82.90;;;;;;5072660;28;20424;-72
2021/04/01 04:22:04;;;;;;;13.27;12.03;;;14.00;83.30;;;;;;5074185;28;20263;-71
2021/04/01 04:24:33;;;;;;;13.77;12.40;;;14.00;84.00;;;;;;5073470;28;20195;-72
2021/04/01 04:27:07;;;;;;;14.00;12.67;;;14.00;84.20;;;;;;5073072;28;20413;-71
2021/04/01 04:29:33;;;;;;;16.50;15.00;;;14.00;83.40;;;;;;5073177;28;20463;-73
2021/04/01 04:31:58;;;;;;;13.20;11.27;;;14.00;83.70;;;;;;5072692;28;20428;-71
2021/04/01 04:34:24;;;;;;;15.33;12.90;;;14.00;84.30;;;;;;5072984;28;20218;-72
2021/04/01 04:36:50;;;;;;;12.87;11.50;;;14.00;83.20;;;;;;5076679;28;21141;-71
2021/04/01 04:39:15;;;;;;;12.53;11.33;;;14.10;83.80;;;;;;5073465;28;20663;-71
2021/04/01 04:41:41;;;;;;;12.97;11.77;;;14.10;83.90;;;;;;5072270;28;20639;-72
2021/04/01 04:44:07;;;;;;;14.23;11.50;;;14.10;84.40;;;;;;5072334;28;20272;-71
2021/04/01 04:46:32;;;;;;;14.67;13.27;;;14.10;85.20;;;;;;5071940;28;20192;-72
2021/04/01 04:48:58;;;;;;;17.10;12.40;;;14.10;85.40;;;;;;5072991;28;20184;-71
2021/04/01 04:51:24;;;;;;;15.37;13.83;;;14.10;84.40;;;;;;5073146;28;20176;-71
2021/04/01 04:53:52;;;;;;;13.73;12.47;;;14.10;83.60;;;;;;5071638;28;20199;-71
2021/04/01 04:56:21;;;;;;;19.10;12.77;;;14.10;83.40;;;;;;5072014;28;20184;-72
2021/04/01 04:58:53;;;;;;;16.83;15.10;;;14.10;83.30;;;;;;5069732;28;20513;-71
2021/04/01 05:09:10;;;;;;;15.23;13.10;;;14.20;81.80;;;;;;5073010;28;20394;-71
2021/04/01 05:11:36;;;;;;;16.73;15.23;;;14.30;80.50;;;;;;5070646;28;20472;-72
2021/04/01 05:14:02;;;;;;;15.87;13.83;;;14.30;82.00;;;;;;5072591;28;20502;-71
2021/04/01 05:16:28;;;;;;;17.20;15.40;;;14.40;82.30;;;;;;5072857;28;20407;-71
2021/04/01 05:18:57;;;;;;;15.27;13.20;;;14.40;82.60;;;;;;5070480;28;21033;-71
2021/04/01 05:21:30;;;;;;;13.27;11.90;;;14.40;82.70;;;;;;5071477;28;20414;-71
2021/04/01 05:23:57;;;;;;;16.40;14.80;;;14.50;83.90;;;;;;5071844;28;21035;-71
2021/04/01 05:29:06;;;;;;;13.90;12.50;;;14.50;83.70;;;;;;5072170;28;20471;-71
2021/04/01 05:31:37;;;;;;;14.17;12.40;;;14.50;84.00;;;;;;5071220;28;20960;-71
2021/04/01 05:34:03;;;;;;;16.10;14.13;;;14.40;85.10;;;;;;5072745;28;20854;-70
2021/04/01 05:36:32;;;;;;;15.10;12.97;;;14.40;84.70;;;;;;5072357;28;20470;-72
2021/04/01 05:38:59;;;;;;;16.87;14.60;;;14.50;83.80;;;;;;5071112;28;20471;-72
2021/04/01 05:41:27;;;;;;;16.40;14.70;;;14.40;83.20;;;;;;5072119;28;20482;-73
2021/04/01 05:44:07;;;;;;;18.80;15.10;;;14.40;83.10;;;;;;5070646;28;20803;-73
2021/04/01 05:46:58;;;;;;;16.23;14.20;;;14.50;84.50;;;;;;5070416;28;20425;-74
2021/04/01 05:49:34;;;;;;;16.67;14.77;;;14.50;85.00;;;;;;5071390;28;20532;-72
2021/04/01 06:01:06;;;;;;;16.70;14.10;;;14.40;83.70;;;;;;5070670;28;20410;-73
2021/04/01 06:05:43;;;;;;;16.30;14.47;;;14.50;82.90;;;;;;5069499;28;20406;-73
2021/04/01 06:08:18;;;;;;;22.50;15.47;;;14.50;82.20;;;;;;5071019;28;20430;-72
2021/04/01 06:10:44;;;;;;;16.50;14.73;;;14.50;83.00;;;;;;5068511;28;20414;-72
2021/04/01 06:13:14;;;;;;;17.27;15.47;;;14.60;85.80;;;;;;5071325;28;20547;-72
2021/04/01 06:15:45;;;;;;;19.30;15.60;;;14.60;85.00;;;;;;5070078;28;20802;-72
2021/04/01 06:18:14;;;;;;;19.03;16.10;;;14.60;83.20;;;;;;5071732;28;20429;-72
2021/04/01 06:20:42;;;;;;;18.57;16.53;;;14.60;81.60;;;;;;5068897;28;20422;-73
2021/04/01 06:23:31;;;;;;;19.27;17.27;;;14.70;83.50;;;;;;5070344;28;20445;-72
2021/04/01 06:25:58;;;;;;;19.40;17.40;;;14.70;83.80;;;;;;5070104;28;20450;-72
2021/04/01 06:28:47;;;;;;;18.83;15.73;;;14.70;84.10;;;;;;5077037;28;20455;-72
2021/04/01 06:31:17;;;;;;;18.80;15.93;;;14.80;83.80;;;;;;5072369;28;20415;-73
2021/04/01 06:33:49;;;;;;;22.50;19.17;;;14.80;82.00;;;;;;5070908;28;20477;-73
2021/04/01 06:36:26;;;;;;;26.07;16.07;;;14.80;81.40;;;;;;5071931;28;20415;-73
2021/04/01 06:38:52;;;;;;;19.83;17.50;;;14.80;80.50;;;;;;5071464;28;20396;-73
2021/04/01 06:41:27;;;;;;;18.80;16.80;;;14.80;82.40;;;;;;5075789;28;20429;-72
2021/04/01 06:43:56;;;;;;;20.80;17.33;;;14.80;83.70;;;;;;5074941;28;20177;-73
2021/04/01 06:46:26;;;;;;;21.40;17.37;;;14.90;84.10;;;;;;5074605;28;20651;-73
2021/04/01 06:52:01;;;;;;;21.57;18.57;;;15.00;83.90;;;;;;5074197;28;20422;-73
2021/04/01 06:57:42;;;;;;;20.50;18.40;;;15.00;80.50;;;;;;5074192;28;20435;-72
2021/04/01 07:03:16;;;;;;;21.57;19.20;;;15.10;81.20;;;;;;5074335;28;20416;-72
2021/04/01 07:05:48;;;;;;;22.30;17.37;;;15.20;82.60;;;;;;5072566;28;20488;-72
2021/04/01 07:08:17;;;;;;;24.83;19.80;;;15.20;82.20;;;;;;5075137;28;20414;-72
2021/04/01 07:13:19;;;;;;;23.73;19.70;;;15.30;81.20;;;;;;5074578;28;20447;-72
2021/04/01 07:15:49;;;;;;;22.17;19.90;;;15.40;81.90;;;;;;5073900;28;20498;-72
2021/04/01 07:48:57;;;;;;;40.60;27.17;;;16.60;73.90;;;;;;5069975;28;20419;-71
2021/04/01 07:54:11;;;;;;;37.27;27.00;;;16.90;73.30;;;;;;5072370;28;20458;-71
2021/04/01 07:59:23;;;;;;;45.47;28.20;;;17.00;73.80;;;;;;5074185;28;20439;-71
2021/04/01 08:02:19;;;;;;;40.13;27.80;;;17.10;73.00;;;;;;5073439;28;20396;-72
2021/04/01 08:04:47;;;;;;;45.23;27.23;;;17.20;72.10;;;;;;5072721;28;20416;-73
2021/04/01 08:07:14;;;;;;;43.40;28.77;;;17.40;71.20;;;;;;5073935;28;20507;-72
2021/04/01 08:09:46;;;;;;;44.57;29.00;;;17.50;69.90;;;;;;5072450;28;20459;-73
2021/04/01 08:12:28;;;;;;;44.80;28.77;;;17.60;69.50;;;;;;5073731;28;20419;-72
2021/04/01 08:15:22;;;;;;;44.87;28.60;;;17.70;69.80;;;;;;5060488;28;20418;-72
2021/04/01 08:17:56;;;;;;;45.37;29.17;;;17.90;69.70;;;;;;5073770;28;20510;-72
2021/04/01 08:20:26;;;;;;;42.07;29.80;;;18.00;68.10;;;;;;5073020;28;20415;-72
2021/04/01 08:25:49;;;;;;;46.70;28.13;;;18.10;66.90;;;;;;5055356;28;20407;-72
2021/04/01 08:34:14;;;;;;;48.63;29.57;;;18.50;66.10;;;;;;5075713;28;20474;-73
2021/04/01 08:36:51;;;;;;;47.63;28.63;;;18.60;65.40;;;;;;5073602;28;20772;-72
2021/04/01 08:39:19;;;;;;;44.00;27.63;;;18.70;65.20;;;;;;5078674;28;20445;-72
2021/04/01 08:42:03;;;;;;;44.40;28.33;;;18.80;65.20;;;;;;5075377;28;20415;-72
2021/04/01 08:44:47;;;;;;;43.53;27.63;;;19.00;65.60;;;;;;5072911;28;20481;-71
2021/04/01 08:47:52;;;;;;;46.00;29.00;;;19.00;65.90;;;;;;5073471;28;20411;-71
2021/04/01 08:50:47;;;;;;;44.47;28.50;;;19.10;63.40;;;;;;5071887;28;20430;-71
2021/04/01 08:53:35;;;;;;;45.53;26.43;;;19.20;63.00;;;;;;5062001;28;20439;-72
2021/04/01 08:56:30;;;;;;;41.20;26.60;;;19.30;62.30;;;;;;5052382;28;20499;-71
2021/04/01 08:59:24;;;;;;;39.30;25.97;;;19.40;64.50;;;;;;5052326;28;20756;-71
2021/04/01 09:01:52;;;;;;;40.57;25.33;;;19.60;62.80;;;;;;5052513;28;20401;-72
2021/04/01 09:04:26;;;;;;;42.80;27.03;;;19.60;62.30;;;;;;5053209;28;20495;-71
2021/04/01 09:07:02;;;;;;;42.47;26.93;;;19.70;62.20;;;;;;5052752;28;20396;-71
2021/04/01 09:09:32;;;;;;;39.87;25.73;;;19.80;61.00;;;;;;5053221;28;20475;-71
2021/04/01 09:12:10;;;;;;;39.00;25.63;;;19.90;64.00;;;;;;5052542;28;20443;-71
2021/04/01 09:14:39;;;;;;;43.80;27.00;;;20.00;63.00;;;;;;5068945;28;20411;-72
2021/04/01 09:17:16;;;;;;;44.23;28.17;;;20.20;63.10;;;;;;5072200;28;20468;-71
2021/04/01 09:19:44;;;;;;;44.50;27.90;;;20.20;62.70;;;;;;5070067;28;20901;-71
2021/04/01 09:22:20;;;;;;;48.27;30.43;;;20.30;60.20;;;;;;5072062;28;20502;-71
2021/04/01 09:25:03;;;;;;;46.90;30.23;;;20.50;59.30;;;;;;5070966;28;20461;-72
2021/04/01 09:27:29;;;;;;;47.43;27.60;;;20.60;60.90;;;;;;5072354;28;20398;-72
2021/04/01 09:30:08;;;;;;;45.53;27.10;;;20.70;59.90;;;;;;5072161;28;20514;-71
2021/04/01 09:32:36;;;;;;;44.33;27.00;;;20.90;59.50;;;;;;5072853;28;20453;-70
2021/04/01 09:35:04;;;;;;;50.80;31.07;;;21.10;59.00;;;;;;5071025;28;20407;-71
2021/04/01 09:37:31;;;;;;;46.00;28.80;;;21.30;62.20;;;;;;5072633;28;20460;-71
2021/04/01 09:40:11;;;;;;;44.00;27.17;;;21.50;61.70;;;;;;5071928;28;20919;-71
2021/04/01 09:42:46;;;;;;;42.77;25.77;;;21.70;58.80;;;;;;5072276;28;20419;-71
2021/04/01 09:45:27;;;;;;;47.30;28.90;;;21.80;57.50;;;;;;5052523;28;20415;-71
2021/04/01 09:48:03;;;;;;;47.47;29.90;;;22.00;58.40;;;;;;5052052;28;20401;-72
2021/04/01 09:50:34;;;;;;;43.90;29.10;;;22.10;58.60;;;;;;5052751;28;20403;-71
2021/04/01 09:53:03;;;;;;;49.20;30.53;;;22.30;57.90;;;;;;5051891;28;20936;-71
2021/04/01 09:55:49;;;;;;;42.57;28.67;;;22.50;56.30;;;;;;5059049;28;20785;-71
2021/04/01 09:58:36;;;;;;;48.10;30.17;;;22.80;57.90;;;;;;5070420;28;20414;-71
2021/04/01 10:03:44;;;;;;;43.43;29.03;;;23.10;55.10;;;;;;5072370;28;20753;-71
2021/04/01 10:06:10;;;;;;;43.20;27.60;;;23.10;53.60;;;;;;5071840;28;20391;-70
2021/04/01 10:08:36;;;;;;;41.20;26.93;;;23.20;56.20;;;;;;5072259;28;20423;-71
2021/04/01 10:11:26;;;;;;;41.80;28.27;;;23.50;56.70;;;;;;5053793;28;20622;-72
2021/04/01 10:14:07;;;;;;;52.83;27.70;;;23.70;52.90;;;;;;5071580;28;20443;-72
2021/04/01 10:16:34;;;;;;;38.60;24.20;;;23.90;51.90;;;;;;5076215;28;20776;-71
2021/04/01 10:19:05;;;;;;;40.60;26.63;;;24.10;53.00;;;;;;5075635;28;20403;-72
2021/04/01 10:21:31;;;;;;;43.73;29.03;;;24.30;53.50;;;;;;5075249;28;20437;-72
2021/04/01 10:23:59;;;;;;;41.23;26.13;;;24.60;52.80;;;;;;5067519;28;20408;-71
2021/04/01 10:26:37;;;;;;;35.30;23.37;;;24.80;51.50;;;;;;5074114;28;20169;-72
2021/04/01 10:29:15;;;;;;;36.57;24.87;;;25.00;52.50;;;;;;5075408;28;20414;-72
2021/04/01 10:31:52;;;;;;;39.00;27.20;;;25.10;51.00;;;;;;5075157;28;20407;-71
2021/04/01 10:34:29;;;;;;;39.10;26.80;;;25.10;50.00;;;;;;5076126;28;20474;-70
2021/04/01 10:36:59;;;;;;;36.33;25.67;;;25.20;52.00;;;;;;5075652;28;20895;-72
2021/04/01 10:39:32;;;;;;;41.27;27.53;;;25.30;53.60;;;;;;5074794;28;20427;-71
2021/04/01 10:41:59;;;;;;;38.90;27.10;;;25.50;52.60;;;;;;5075522;28;20469;-71
2021/04/01 10:44:25;;;;;;;42.20;25.87;;;25.60;50.20;;;;;;5076172;28;20423;-71
2021/04/01 10:46:54;;;;;;;34.60;25.17;;;25.70;49.30;;;;;;5073786;28;20415;-71
2021/04/01 10:49:27;;;;;;;41.53;26.20;;;25.70;51.90;;;;;;5075232;28;20181;-71
2021/04/01 10:51:55;;;;;;;43.23;29.33;;;25.90;51.90;;;;;;5075344;28;20498;-71
2021/04/01 10:54:22;;;;;;;39.00;26.80;;;25.90;52.20;;;;;;5075795;28;20522;-71
2021/04/01 10:56:54;;;;;;;40.43;28.77;;;26.10;52.50;;;;;;5075421;28;20468;-72
2021/04/01 10:59:45;;;;;;;40.27;27.20;;;26.20;51.50;;;;;;5075741;28;20431;-71
2021/04/01 11:02:19;;;;;;;41.83;29.63;;;26.30;51.60;;;;;;5075117;28;20766;-71
2021/04/01 11:04:47;;;;;;;39.17;26.37;;;26.20;52.00;;;;;;5075589;28;20761;-71
2021/04/01 11:07:14;;;;;;;42.30;26.80;;;26.30;51.30;;;;;;5075525;28;20413;-71
2021/04/01 11:09:49;;;;;;;40.10;26.30;;;26.30;50.10;;;;;;5075404;28;20845;-71
2021/04/01 11:12:18;;;;;;;40.47;26.53;;;26.40;49.00;;;;;;5075511;28;20405;-71
2021/04/01 11:14:51;;;;;;;40.60;25.90;;;26.20;50.70;;;;;;5074045;28;20498;-71
2021/04/01 11:17:24;;;;;;;40.20;28.03;;;26.20;51.60;;;;;;5075591;28;20434;-71
2021/04/01 11:19:53;;;;;;;37.43;25.60;;;26.20;51.40;;;;;;5073561;28;20440;-71
2021/04/01 11:22:19;;;;;;;36.20;24.20;;;26.20;51.30;;;;;;5075152;28;20408;-71
2021/04/01 11:24:45;;;;;;;40.27;25.50;;;26.20;53.00;;;;;;5073915;28;20464;-71
2021/04/01 11:27:14;;;;;;;37.13;26.00;;;26.20;50.10;;;;;;5072926;28;20404;-72
2021/04/01 11:29:49;;;;;;;40.70;27.83;;;26.30;49.60;;;;;;5074716;28;20419;-71
2021/04/01 11:32:19;;;;;;;30.60;22.73;;;26.30;49.90;;;;;;5075183;28;20395;-72
2021/04/01 11:34:46;;;;;;;31.63;22.13;;;26.30;49.40;;;;;;5075101;28;20926;-72
2021/04/01 11:37:16;;;;;;;36.17;22.90;;;26.30;47.60;;;;;;5074330;28;20411;-71
2021/04/01 11:39:42;;;;;;;35.27;23.07;;;26.30;48.50;;;;;;5074859;28;20495;-71
2021/04/01 11:42:18;;;;;;;39.53;23.67;;;26.40;49.20;;;;;;5074326;28;20423;-71
2021/04/01 11:44:45;;;;;;;33.87;23.70;;;26.40;49.50;;;;;;5074796;28;20204;-72
2021/04/01 11:47:20;;;;;;;36.37;24.30;;;26.40;49.70;;;;;;5085993;28;20426;-71
2021/04/01 11:49:48;;;;;;;36.00;24.50;;;26.30;49.90;;;;;;5074536;28;20443;-71
2021/04/01 11:52:20;;;;;;;38.23;25.13;;;26.30;50.40;;;;;;5072545;28;20431;-71
2021/04/01 11:54:48;;;;;;;38.47;26.50;;;26.30;49.60;;;;;;5074674;28;20396;-70
2021/04/01 11:57:26;;;;;;;39.60;26.93;;;26.30;50.70;;;;;;5074029;28;20461;-70
2021/04/01 12:00:01;;;;;;;38.77;25.63;;;26.50;48.80;;;;;;5074124;28;20490;-71
2021/04/01 12:02:28;;;;;;;40.90;27.53;;;26.50;50.40;;;;;;5074667;28;20838;-70
2021/04/01 12:04:57;;;;;;;38.33;27.33;;;26.50;49.40;;;;;;5073767;28;20422;-71
2021/04/01 12:07:23;;;;;;;37.63;25.83;;;26.40;48.00;;;;;;5073067;28;20439;-71
2021/04/01 12:09:51;;;;;;;42.73;27.30;;;26.30;48.40;;;;;;5074414;28;20804;-71
2021/04/01 12:12:33;;;;;;;40.67;26.50;;;26.20;48.90;;;;;;5074142;28;20411;-71
2021/04/01 12:15:03;;;;;;;39.70;28.40;;;26.20;48.90;;;;;;5053559;28;20443;-71
2021/04/01 12:17:37;;;;;;;50.07;31.43;;;26.10;52.00;;;;;;5054194;28;20435;-71
2021/04/01 12:20:09;;;;;;;41.20;30.30;;;26.00;50.00;;;;;;5053589;28;20412;-71
2021/04/01 12:22:38;;;;;;;39.23;29.50;;;26.00;51.40;;;;;;5054299;28;20397;-71
2021/04/01 12:25:08;;;;;;;40.93;31.27;;;26.00;52.50;;;;;;5053503;28;20451;-71
2021/04/01 12:27:33;;;;;;;40.70;29.57;;;26.00;49.90;;;;;;5053854;28;20408;-71
2021/04/01 12:30:01;;;;;;;38.37;30.03;;;25.90;50.90;;;;;;5052524;28;20412;-71
2021/04/01 12:32:29;;;;;;;43.80;32.30;;;25.90;51.60;;;;;;5052065;28;20184;-70
2021/04/01 12:35:13;;;;;;;43.60;32.17;;;25.90;53.30;;;;;;5051689;28;20900;-71
2021/04/01 12:37:40;;;;;;;39.37;32.30;;;25.90;52.50;;;;;;5052832;28;20811;-71
2021/04/01 12:40:14;;;;;;;48.77;38.20;;;25.80;53.00;;;;;;5053173;28;20407;-71
2021/04/01 12:42:40;;;;;;;48.10;38.50;;;25.20;52.50;;;;;;5055436;28;20753;-71
2021/04/01 12:45:29;;;;;;;51.83;41.00;;;25.00;53.70;;;;;;5072936;28;20948;-71
2021/04/01 12:48:08;;;;;;;48.33;36.53;;;25.00;54.40;;;;;;5072806;28;20888;-72
2021/04/01 12:50:36;;;;;;;56.57;43.93;;;24.90;54.90;;;;;;5073787;28;20412;-72
2021/04/01 12:53:03;;;;;;;54.47;41.77;;;24.80;53.50;;;;;;5072562;28;20531;-72
2021/04/01 12:55:55;;;;;;;52.40;40.03;;;24.80;55.30;;;;;;5070694;28;20777;-71
2021/04/01 12:59:19;;;;;;;62.50;44.33;;;24.70;54.80;;;;;;5070730;28;20823;-72
2021/04/01 13:04:06;;;;;;;51.70;42.03;;;24.60;54.20;;;;;;5071360;28;20396;-73
2021/04/01 13:11:46;;;;;;;59.50;43.50;;;24.30;56.60;;;;;;5069612;28;20431;-72
2021/04/01 13:14:11;;;;;;;54.77;43.03;;;24.20;56.20;;;;;;5072020;28;20459;-72
2021/04/01 13:16:38;;;;;;;55.00;43.40;;;24.00;54.90;;;;;;5072281;28;20469;-72
2021/04/01 13:19:06;;;;;;;58.20;45.00;;;24.00;54.00;;;;;;5072079;28;20189;-72
2021/04/01 13:24:13;;;;;;;52.70;40.60;;;23.70;55.20;;;;;;5066749;28;20837;-73
2021/04/01 13:26:41;;;;;;;53.70;39.27;;;23.40;56.50;;;;;;5069497;28;20434;-74
2021/04/01 13:29:09;;;;;;;51.40;40.23;;;23.10;55.30;;;;;;5070853;28;20426;-72
2021/04/01 13:31:42;;;;;;;49.00;36.33;;;23.10;58.20;;;;;;5072267;28;20927;-72
2021/04/01 13:34:13;;;;;;;44.93;35.60;;;23.30;57.80;;;;;;5071867;28;20520;-72
2021/04/01 13:36:54;;;;;;;45.03;35.30;;;23.30;56.00;;;;;;5083552;28;20411;-72
2021/04/01 13:39:26;;;;;;;46.87;37.30;;;23.30;55.40;;;;;;5071783;28;20445;-73
2021/04/01 13:42:06;;;;;;;46.90;35.33;;;23.30;56.90;;;;;;5086843;28;20422;-72
2021/04/01 13:44:40;;;;;;;43.57;35.77;;;23.40;56.20;;;;;;5073517;28;20918;-72
2021/04/01 13:47:07;;;;;;;45.70;33.73;;;23.40;56.20;;;;;;5068852;28;20959;-72
2021/04/01 13:49:33;;;;;;;40.50;31.00;;;23.50;55.90;;;;;;5070859;28;20490;-72
2021/04/01 13:52:10;;;;;;;37.10;31.57;;;23.60;55.30;;;;;;5071784;28;20414;-72
2021/04/01 13:57:51;;;;;;;39.80;33.20;;;23.50;55.10;;;;;;5071380;28;20423;-72
2021/04/01 14:09:10;;;;;;;32.53;28.63;;;23.20;54.80;;;;;;5068716;28;20764;-72
2021/04/01 14:11:38;;;;;;;32.17;27.07;;;23.10;55.80;;;;;;5069732;28;20445;-72
2021/04/01 14:14:04;;;;;;;33.20;26.03;;;23.00;56.00;;;;;;5071229;28;20467;-73
2021/04/01 14:16:31;;;;;;;30.53;25.00;;;22.90;56.60;;;;;;5072273;28;20437;-73
2021/04/01 14:18:58;;;;;;;31.53;26.60;;;22.80;56.30;;;;;;5054223;28;20439;-72
2021/04/01 14:21:25;;;;;;;29.90;24.73;;;22.80;55.10;;;;;;5071112;28;20420;-72
2021/04/01 14:23:51;;;;;;;26.83;23.20;;;22.60;59.00;;;;;;5053593;28;20463;-73
2021/04/01 14:28:45;;;;;;;30.80;19.87;;;22.60;57.10;;;;;;5062213;28;20782;-72
2021/04/01 14:31:12;;;;;;;25.70;17.90;;;22.60;58.80;;;;;;5070990;28;20423;-72
2021/04/01 14:33:41;;;;;;;18.70;16.40;;;22.60;59.40;;;;;;5071201;28;20251;-72
2021/04/01 14:36:08;;;;;;;19.30;16.77;;;22.70;58.30;;;;;;5071000;28;20514;-73
2021/04/01 14:38:35;;;;;;;16.40;14.83;;;22.30;57.30;;;;;;5070876;28;20423;-72
2021/04/01 14:41:08;;;;;;;15.30;13.70;;;22.40;58.60;;;;;;5071191;28;20442;-73